Time;durP1;ratioP1;P1;durP2;ratioP2;P2;SDS_P1;SDS_P2;PMS_P1;PMS_P2;Temp;Humidity;BMP_temperature;BMP_pressure;BME280_temperature;BME280_humidity;BME280_pressure;Samples;Min_cycle;Max_cycle;Signal;HPM_P1;HPM_P2
2021/08/04 00:00:33;;;;;;;5.68;5.07;;;22.70;68.10;;;;;;5034399;28;20032;-61
2021/08/04 00:02:59;;;;;;;5.38;4.78;;;22.60;68.10;;;;;;5034362;28;20489;-61
2021/08/04 00:05:25;;;;;;;6.05;4.80;;;22.60;68.20;;;;;;5033968;28;20025;-61
2021/08/04 00:07:50;;;;;;;6.13;4.88;;;22.60;68.40;;;;;;5033436;28;20028;-61
2021/08/04 00:10:17;;;;;;;5.68;5.10;;;22.60;68.40;;;;;;5032523;28;20148;-61
2021/08/04 00:12:44;;;;;;;5.35;4.57;;;22.50;68.40;;;;;;5033853;28;20036;-61
2021/08/04 00:15:11;;;;;;;6.47;4.97;;;22.50;68.40;;;;;;5034042;28;20381;-61
2021/08/04 00:17:38;;;;;;;7.53;5.43;;;22.50;68.60;;;;;;5033801;28;20026;-61
2021/08/04 00:20:05;;;;;;;8.30;5.07;;;22.50;68.60;;;;;;5033760;28;20033;-61
2021/08/04 00:22:30;;;;;;;5.82;5.22;;;22.50;69.00;;;;;;5031659;28;20014;-61
2021/08/04 00:24:56;;;;;;;5.70;4.90;;;22.50;69.00;;;;;;5033573;28;20045;-61
2021/08/04 00:27:24;;;;;;;5.53;4.72;;;22.40;69.20;;;;;;5032935;28;20116;-61
2021/08/04 00:29:49;;;;;;;5.20;4.55;;;22.50;69.10;;;;;;5032131;28;20029;-61
2021/08/04 00:32:15;;;;;;;7.85;5.07;;;22.40;68.90;;;;;;5031619;28;20044;-61
2021/08/04 00:34:41;;;;;;;5.18;4.57;;;22.40;68.90;;;;;;5032520;28;20026;-61
2021/08/04 00:37:06;;;;;;;5.32;4.65;;;22.40;69.00;;;;;;5032687;28;20033;-61
2021/08/04 00:39:32;;;;;;;6.38;4.85;;;22.40;68.90;;;;;;5017998;28;20038;-61
2021/08/04 00:41:57;;;;;;;5.40;4.85;;;22.40;69.10;;;;;;5013774;28;20100;-61
2021/08/04 00:44:23;;;;;;;5.30;4.57;;;22.40;69.10;;;;;;5013540;28;20072;-61
2021/08/04 00:46:49;;;;;;;5.63;5.05;;;22.30;69.10;;;;;;5033493;28;20036;-61
2021/08/04 00:49:15;;;;;;;5.95;5.15;;;22.30;69.20;;;;;;5033228;28;20100;-61
2021/08/04 00:51:41;;;;;;;5.68;4.90;;;22.20;69.50;;;;;;5033230;28;20033;-61
2021/08/04 00:54:08;;;;;;;5.32;4.82;;;22.20;69.70;;;;;;5033192;28;20052;-61
2021/08/04 00:56:34;;;;;;;5.43;4.68;;;22.20;70.10;;;;;;5033135;28;20117;-61
2021/08/04 00:59:02;;;;;;;7.63;5.05;;;22.20;70.10;;;;;;5032909;28;20032;-61
2021/08/04 01:01:45;;;;;;;7.47;4.75;;;22.20;70.50;;;;;;5032605;28;20057;-61
2021/08/04 01:04:43;;;;;;;5.85;5.22;;;22.20;70.30;;;;;;5033141;28;20555;-61
2021/08/04 01:07:35;;;;;;;7.10;5.78;;;22.20;70.60;;;;;;5035562;28;20077;-61
2021/08/04 01:10:15;;;;;;;6.20;5.60;;;22.10;70.50;;;;;;5032635;28;20033;-61
2021/08/04 01:12:50;;;;;;;6.53;4.82;;;22.20;70.70;;;;;;5033066;28;20033;-61
2021/08/04 01:15:17;;;;;;;6.22;5.55;;;22.10;71.10;;;;;;5032942;28;20025;-61
2021/08/04 01:17:49;;;;;;;7.07;5.88;;;22.10;71.00;;;;;;5032888;28;20131;-61
2021/08/04 01:20:22;;;;;;;6.38;5.65;;;22.10;70.90;;;;;;5031915;28;20061;-62
2021/08/04 01:22:56;;;;;;;5.65;4.85;;;22.20;70.90;;;;;;5029301;28;20025;-61
2021/08/04 01:25:28;;;;;;;7.35;5.50;;;22.10;70.60;;;;;;5032694;28;20435;-61
2021/08/04 01:28:18;;;;;;;6.85;5.32;;;22.10;70.70;;;;;;5032827;28;20116;-61
2021/08/04 01:30:45;;;;;;;5.88;5.18;;;22.10;70.30;;;;;;5032876;28;20045;-61
2021/08/04 01:33:15;;;;;;;5.25;4.75;;;22.10;70.50;;;;;;5032636;28;20501;-61
2021/08/04 01:35:43;;;;;;;7.05;5.40;;;22.10;70.40;;;;;;5032312;28;20022;-61
2021/08/04 01:38:11;;;;;;;6.35;5.50;;;22.00;70.30;;;;;;5032524;28;20057;-61
2021/08/04 01:40:37;;;;;;;6.10;5.03;;;22.00;71.20;;;;;;5032566;28;20048;-61
2021/08/04 01:43:03;;;;;;;7.05;5.40;;;22.00;70.50;;;;;;5032477;28;20374;-61
2021/08/04 01:45:29;;;;;;;6.50;5.75;;;22.00;70.50;;;;;;5032679;28;20501;-61
2021/08/04 01:47:55;;;;;;;6.97;5.30;;;22.00;70.50;;;;;;5032680;28;20359;-61
2021/08/04 01:50:21;;;;;;;6.95;5.35;;;22.00;70.70;;;;;;5031670;28;20025;-61
2021/08/04 01:52:47;;;;;;;7.28;5.40;;;22.00;70.50;;;;;;5032185;28;20036;-61
2021/08/04 01:55:13;;;;;;;7.47;5.32;;;22.00;70.70;;;;;;5032191;28;20087;-61
2021/08/04 01:57:39;;;;;;;5.93;5.32;;;21.90;71.00;;;;;;5032215;28;20036;-61
2021/08/04 02:00:05;;;;;;;6.10;5.15;;;21.90;71.10;;;;;;5032689;28;20045;-61
2021/08/04 02:02:31;;;;;;;6.05;5.38;;;21.90;71.50;;;;;;5032365;28;20064;-61
2021/08/04 02:04:56;;;;;;;6.50;5.38;;;21.90;71.50;;;;;;5032765;28;20315;-61
2021/08/04 02:07:58;;;;;;;6.03;5.43;;;21.90;71.40;;;;;;5032042;28;20026;-61
2021/08/04 02:10:26;;;;;;;;;;;21.80;71.30;;;;;;5031714;28;20035;-61
2021/08/04 02:12:58;;;;;;;7.18;5.03;;;21.80;71.20;;;;;;5032368;28;20468;-61
2021/08/04 02:15:27;;;;;;;6.65;5.43;;;21.80;71.60;;;;;;5032395;28;20103;-61
2021/08/04 02:18:06;;;;;;;7.72;5.90;;;21.80;71.80;;;;;;5032325;28;20021;-61
2021/08/04 02:20:36;;;;;;;7.75;5.55;;;21.80;72.00;;;;;;5032531;28;20137;-61
2021/08/04 02:23:05;;;;;;;6.40;5.80;;;21.70;72.10;;;;;;5029448;28;20121;-62
2021/08/04 02:25:44;;;;;;;6.55;5.43;;;21.70;72.60;;;;;;5030969;28;20098;-61
2021/08/04 02:28:16;;;;;;;6.50;5.65;;;21.80;73.00;;;;;;5035868;28;20049;-61
2021/08/04 02:30:42;;;;;;;7.35;5.68;;;21.80;72.70;;;;;;5036045;28;20401;-61
2021/08/04 02:33:08;;;;;;;7.07;5.95;;;21.80;72.80;;;;;;5035208;28;20053;-61
2021/08/04 02:35:34;;;;;;;6.45;5.80;;;21.80;73.00;;;;;;5034230;28;20523;-62
2021/08/04 02:38:00;;;;;;;6.88;5.93;;;21.80;73.30;;;;;;5035817;28;20036;-62
2021/08/04 02:40:26;;;;;;;7.65;6.40;;;21.80;73.00;;;;;;5035709;28;20036;-62
2021/08/04 02:42:54;;;;;;;6.57;5.80;;;21.80;73.00;;;;;;5035929;28;20428;-62
2021/08/04 02:45:20;;;;;;;6.90;5.72;;;21.80;73.30;;;;;;5034184;28;20612;-62
2021/08/04 02:47:47;;;;;;;6.95;5.97;;;21.80;73.30;;;;;;5035748;28;20072;-62
2021/08/04 02:50:14;;;;;;;7.28;5.80;;;21.80;73.30;;;;;;5035475;28;20029;-62
2021/08/04 02:52:41;;;;;;;6.50;5.75;;;21.80;73.50;;;;;;5035875;28;20026;-62
2021/08/04 02:55:08;;;;;;;7.60;6.18;;;21.80;73.50;;;;;;5035091;28;20103;-62
2021/08/04 02:57:34;;;;;;;6.47;5.43;;;21.80;73.50;;;;;;5035121;28;20021;-62
2021/08/04 03:00:00;;;;;;;7.65;5.80;;;21.90;73.30;;;;;;5035230;28;20030;-62
2021/08/04 03:02:25;;;;;;;6.90;5.53;;;21.90;73.30;;;;;;5046289;28;20055;-62
2021/08/04 03:04:51;;;;;;;5.95;5.30;;;21.90;73.20;;;;;;5055217;28;20029;-62
2021/08/04 03:07:17;;;;;;;6.45;5.63;;;21.90;73.10;;;;;;5035026;28;20393;-62
2021/08/04 03:09:43;;;;;;;6.97;5.70;;;21.90;73.20;;;;;;5035221;28;20072;-62
2021/08/04 03:12:09;;;;;;;7.53;5.55;;;21.90;73.40;;;;;;5035047;28;20056;-62
2021/08/04 03:14:34;;;;;;;6.85;5.63;;;22.00;73.70;;;;;;5035180;28;20385;-62
2021/08/04 03:17:00;;;;;;;6.72;5.45;;;22.00;73.60;;;;;;5035077;28;20095;-62
2021/08/04 03:19:26;;;;;;;8.30;5.75;;;22.10;74.10;;;;;;5034992;28;20466;-62
2021/08/04 03:21:51;;;;;;;6.43;5.47;;;22.10;74.20;;;;;;5035051;28;20109;-62
2021/08/04 03:24:17;;;;;;;7.13;5.50;;;22.20;74.20;;;;;;5034560;28;20068;-62
2021/08/04 03:26:43;;;;;;;6.18;5.57;;;22.30;74.40;;;;;;5034448;28;20416;-62
2021/08/04 03:29:08;;;;;;;6.70;6.00;;;22.40;74.30;;;;;;5035037;28;20033;-62
2021/08/04 03:31:34;;;;;;;6.50;5.80;;;22.50;74.50;;;;;;5035294;28;20124;-62
2021/08/04 03:34:00;;;;;;;6.68;6.05;;;22.70;74.60;;;;;;5034729;28;20075;-62
2021/08/04 03:36:25;;;;;;;6.18;5.57;;;22.80;75.30;;;;;;5034899;28;20043;-62
2021/08/04 03:38:51;;;;;;;6.50;5.80;;;23.00;74.50;;;;;;5034724;28;20053;-62
2021/08/04 03:41:17;;;;;;;7.88;6.13;;;23.10;74.20;;;;;;5034542;28;20474;-62
2021/08/04 03:43:43;;;;;;;6.55;5.85;;;23.30;74.50;;;;;;5035022;28;20363;-62
2021/08/04 03:46:09;;;;;;;7.15;6.22;;;23.50;74.80;;;;;;5034247;28;20065;-62
2021/08/04 03:48:34;;;;;;;6.60;5.97;;;23.70;74.80;;;;;;5034501;28;20484;-62
2021/08/04 03:51:02;;;;;;;8.27;6.15;;;23.90;74.70;;;;;;5033382;28;20072;-63
2021/08/04 03:53:28;;;;;;;7.18;6.32;;;24.20;74.50;;;;;;5034208;28;20048;-63
2021/08/04 03:55:54;;;;;;;5.88;5.28;;;24.40;73.70;;;;;;5034323;28;20025;-63
2021/08/04 03:58:20;;;;;;;6.75;5.93;;;24.60;73.00;;;;;;5033758;28;20099;-63
2021/08/04 04:00:45;;;;;;;7.03;6.32;;;24.90;73.10;;;;;;5033894;28;20029;-62
2021/08/04 04:03:12;;;;;;;7.32;6.32;;;25.30;72.30;;;;;;5034612;28;20037;-63
2021/08/04 04:05:37;;;;;;;7.03;5.70;;;25.80;71.90;;;;;;5029754;28;20469;-63
2021/08/04 04:08:03;;;;;;;6.93;5.72;;;26.40;70.90;;;;;;5014786;28;20112;-62
2021/08/04 04:10:29;;;;;;;4.95;4.45;;;27.20;69.70;;;;;;5028348;28;20099;-62
2021/08/04 04:12:55;;;;;;;6.50;4.90;;;28.00;66.50;;;;;;5033965;28;20062;-63
2021/08/04 04:15:21;;;;;;;4.85;4.35;;;29.00;64.10;;;;;;5034386;28;20033;-63
2021/08/04 04:17:46;;;;;;;4.57;3.95;;;30.10;61.50;;;;;;5034858;28;20104;-63
2021/08/04 04:20:12;;;;;;;4.25;3.72;;;31.10;58.90;;;;;;5033985;28;20029;-63
2021/08/04 04:22:43;;;;;;;4.28;3.70;;;32.00;56.80;;;;;;5022669;28;20241;-63
2021/08/04 04:25:10;;;;;;;4.88;3.65;;;32.90;54.80;;;;;;5018649;28;20116;-63
2021/08/04 04:27:35;;;;;;;3.80;3.40;;;33.70;53.00;;;;;;5029157;28;20013;-63
2021/08/04 04:30:01;;;;;;;4.05;3.60;;;34.40;51.30;;;;;;5034269;28;20104;-63
2021/08/04 04:32:27;;;;;;;5.70;3.95;;;34.70;50.00;;;;;;5034086;28;20037;-63
2021/08/04 04:34:52;;;;;;;4.93;4.03;;;34.60;49.40;;;;;;5033861;28;20022;-63
2021/08/04 04:37:18;;;;;;;5.13;3.80;;;34.40;49.50;;;;;;5028842;28;20120;-63
2021/08/04 04:39:44;;;;;;;4.68;4.18;;;34.50;49.50;;;;;;5014204;28;20370;-63
2021/08/04 04:42:09;;;;;;;4.13;3.72;;;34.90;49.30;;;;;;5014237;28;20024;-63
2021/08/04 04:44:35;;;;;;;4.18;3.70;;;35.40;48.80;;;;;;5028619;28;20060;-63
2021/08/04 04:47:00;;;;;;;4.93;4.00;;;36.00;48.00;;;;;;5033314;28;20056;-63
2021/08/04 04:49:26;;;;;;;5.10;3.63;;;36.30;47.10;;;;;;5034167;28;20025;-63
2021/08/04 04:51:52;;;;;;;4.40;3.67;;;36.90;46.60;;;;;;5034197;28;20029;-63
2021/08/04 04:54:17;;;;;;;4.50;4.10;;;37.40;45.80;;;;;;5033050;28;20020;-63
2021/08/04 04:56:43;;;;;;;4.28;3.70;;;37.90;45.30;;;;;;5033408;28;20028;-63
2021/08/04 04:59:09;;;;;;;3.50;3.20;;;38.30;44.60;;;;;;5033114;28;20113;-62
2021/08/04 05:01:34;;;;;;;3.95;3.55;;;38.50;43.80;;;;;;5027590;28;20389;-62
2021/08/04 05:04:00;;;;;;;4.55;4.00;;;38.50;43.30;;;;;;5021060;28;20022;-62
2021/08/04 05:06:26;;;;;;;5.22;4.05;;;38.50;43.10;;;;;;5030988;28;20851;-62
2021/08/04 05:08:51;;;;;;;3.75;3.17;;;38.60;43.10;;;;;;5023310;28;20496;-62
2021/08/04 05:11:17;;;;;;;4.22;3.63;;;38.60;42.80;;;;;;5024400;28;20121;-62
2021/08/04 05:13:42;;;;;;;6.10;4.22;;;38.50;42.30;;;;;;5028861;28;20048;-62
2021/08/04 05:16:08;;;;;;;4.78;4.13;;;38.30;42.30;;;;;;5028742;28;20041;-63
2021/08/04 05:18:34;;;;;;;5.55;4.50;;;37.90;42.20;;;;;;5027600;28;20045;-63
2021/08/04 05:20:59;;;;;;;5.82;4.72;;;37.40;42.30;;;;;;5029049;28;20389;-63
2021/08/04 05:23:25;;;;;;;5.10;4.47;;;36.70;42.60;;;;;;5029222;28;20103;-63
2021/08/04 05:25:51;;;;;;;4.80;3.95;;;36.20;43.20;;;;;;5022377;28;20029;-63
2021/08/04 05:28:16;;;;;;;4.50;3.75;;;35.60;43.50;;;;;;5022563;28;20017;-63
2021/08/04 05:30:42;;;;;;;4.38;3.47;;;35.10;43.70;;;;;;5025526;28;20037;-63
2021/08/04 05:33:08;;;;;;;3.95;3.40;;;34.80;44.30;;;;;;5025267;28;20040;-63
2021/08/04 05:35:33;;;;;;;4.32;3.40;;;34.70;44.60;;;;;;5025697;28;20071;-62
2021/08/04 05:37:59;;;;;;;3.90;3.22;;;34.60;44.60;;;;;;5022572;28;20057;-63
2021/08/04 05:40:25;;;;;;;3.55;3.20;;;34.30;44.80;;;;;;5024913;28;20029;-63
2021/08/04 05:42:50;;;;;;;3.60;3.30;;;33.80;45.10;;;;;;5024586;28;20029;-63
2021/08/04 05:45:16;;;;;;;4.47;3.58;;;33.30;45.70;;;;;;5027808;28;20024;-62
2021/08/04 05:47:42;;;;;;;3.60;3.05;;;32.80;46.20;;;;;;5018874;28;20283;-62
2021/08/04 05:50:08;;;;;;;3.47;2.95;;;32.30;47.10;;;;;;5020882;28;20033;-62
2021/08/04 05:52:33;;;;;;;3.85;3.28;;;31.80;47.70;;;;;;5025664;28;20033;-62
2021/08/04 05:54:59;;;;;;;4.18;3.20;;;31.30;48.40;;;;;;5025348;28;20036;-62
2021/08/04 05:57:25;;;;;;;2.88;2.67;;;30.90;48.80;;;;;;5022097;28;20450;-62
2021/08/04 05:59:50;;;;;;;4.43;3.10;;;30.50;49.00;;;;;;5022931;28;20091;-63
2021/08/04 06:02:16;;;;;;;3.80;3.33;;;30.20;49.50;;;;;;5020651;28;20021;-63
2021/08/04 06:04:42;;;;;;;3.20;2.90;;;29.80;50.00;;;;;;5024143;28;20033;-62
2021/08/04 06:07:08;;;;;;;4.03;3.10;;;29.50;50.70;;;;;;5027333;28;20428;-62
2021/08/04 06:09:33;;;;;;;3.50;2.90;;;29.30;51.00;;;;;;5024251;28;20114;-61
2021/08/04 06:11:59;;;;;;;3.22;2.92;;;29.10;51.70;;;;;;5024281;28;20025;-62
2021/08/04 06:14:25;;;;;;;3.50;3.20;;;28.90;51.80;;;;;;5021211;28;20107;-62
2021/08/04 06:16:50;;;;;;;6.57;3.50;;;28.80;52.00;;;;;;5017551;28;20113;-62
2021/08/04 06:19:16;;;;;;;4.82;3.10;;;28.60;52.50;;;;;;5020896;28;20520;-62
2021/08/04 06:21:41;;;;;;;3.60;3.30;;;28.50;53.00;;;;;;5021865;28;20112;-62
2021/08/04 06:24:07;;;;;;;3.95;3.13;;;28.40;53.10;;;;;;5021737;28;20056;-62
2021/08/04 06:26:34;;;;;;;3.58;3.25;;;28.20;53.50;;;;;;5018687;28;20033;-62
2021/08/04 06:29:00;;;;;;;4.05;3.58;;;28.10;53.60;;;;;;5019705;28;20034;-63
2021/08/04 06:31:25;;;;;;;3.70;3.30;;;28.00;54.00;;;;;;5018996;28;20077;-62
2021/08/04 06:33:51;;;;;;;3.63;3.22;;;27.80;54.40;;;;;;5024122;28;20036;-62
2021/08/04 06:36:17;;;;;;;3.72;3.17;;;27.70;54.60;;;;;;5027916;28;20030;-63
2021/08/04 06:38:43;;;;;;;3.47;3.17;;;27.70;54.90;;;;;;5024094;28;20842;-64
2021/08/04 06:41:08;;;;;;;4.00;3.60;;;27.60;55.30;;;;;;5022151;28;20377;-63
2021/08/04 06:43:34;;;;;;;5.10;3.42;;;27.50;55.00;;;;;;5025448;28;20029;-63
2021/08/04 06:46:00;;;;;;;4.05;3.28;;;27.50;55.60;;;;;;5013551;28;20956;-62
2021/08/04 06:48:25;;;;;;;4.05;3.13;;;27.40;54.80;;;;;;5024255;28;20029;-62
2021/08/04 06:50:51;;;;;;;6.38;3.63;;;27.40;55.20;;;;;;5020822;28;20034;-62
2021/08/04 06:53:17;;;;;;;4.28;3.88;;;27.30;55.80;;;;;;5022848;28;20043;-62
2021/08/04 06:55:42;;;;;;;4.65;3.95;;;27.30;56.00;;;;;;5020383;28;20033;-61
2021/08/04 06:58:08;;;;;;;5.38;3.70;;;27.20;56.30;;;;;;5025260;28;22748;-62
2021/08/04 07:00:34;;;;;;;3.67;3.28;;;27.10;56.60;;;;;;5018781;28;20030;-62
2021/08/04 07:02:59;;;;;;;3.60;3.30;;;27.00;56.90;;;;;;5017445;28;20108;-62
2021/08/04 07:05:25;;;;;;;4.95;3.58;;;27.00;57.00;;;;;;5021402;28;20075;-62
2021/08/04 07:07:50;;;;;;;3.85;3.20;;;26.90;56.90;;;;;;5015448;28;20029;-63
2021/08/04 07:10:16;;;;;;;4.30;3.10;;;26.80;56.90;;;;;;5014288;28;20037;-62
2021/08/04 07:12:42;;;;;;;3.42;3.13;;;26.80;56.90;;;;;;5018697;28;20123;-62
2021/08/04 07:15:08;;;;;;;3.28;2.97;;;26.70;56.70;;;;;;5009791;28;20543;-62
2021/08/04 07:17:47;;;;;;;4.85;2.80;;;26.70;57.10;;;;;;5011889;28;20034;-61
2021/08/04 07:20:18;;;;;;;3.33;3.00;;;26.70;56.50;;;;;;5007018;28;20030;-62
2021/08/04 07:22:44;;;;;;;3.10;2.80;;;26.60;57.10;;;;;;5012598;28;20536;-62
2021/08/04 07:25:11;;;;;;;4.30;2.50;;;26.60;57.00;;;;;;5011945;28;20029;-62
2021/08/04 07:27:37;;;;;;;4.25;2.88;;;26.60;56.40;;;;;;5013598;28;23011;-62
2021/08/04 07:30:05;;;;;;;3.97;2.95;;;26.60;57.00;;;;;;5012987;28;20049;-62
2021/08/04 07:32:31;;;;;;;2.90;2.70;;;26.60;57.20;;;;;;5012474;28;20060;-62
2021/08/04 07:35:00;;;;;;;3.58;2.97;;;26.60;57.30;;;;;;5012835;28;20365;-62
2021/08/04 07:37:35;;;;;;;2.80;2.60;;;26.60;56.80;;;;;;5008509;28;20787;-62
2021/08/04 07:40:03;;;;;;;3.38;2.40;;;26.60;55.80;;;;;;5009175;28;20577;-61
2021/08/04 07:42:29;;;;;;;2.40;2.20;;;26.60;55.70;;;;;;5008153;28;20037;-62
2021/08/04 07:44:57;;;;;;;3.42;2.80;;;26.50;56.00;;;;;;5005041;28;20025;-62
2021/08/04 07:47:23;;;;;;;3.28;2.80;;;26.50;56.10;;;;;;5007403;28;20040;-61
2021/08/04 07:49:49;;;;;;;2.63;2.42;;;26.50;56.10;;;;;;5008843;28;20083;-62
2021/08/04 07:52:15;;;;;;;2.95;2.75;;;26.50;56.20;;;;;;5010662;28;20121;-63
2021/08/04 07:54:40;;;;;;;3.67;2.72;;;26.50;56.10;;;;;;5009156;28;20037;-63
2021/08/04 07:57:06;;;;;;;2.95;2.70;;;26.50;56.10;;;;;;5009488;28;20140;-62
2021/08/04 07:59:32;;;;;;;2.90;2.67;;;26.50;56.40;;;;;;5004381;28;20041;-63
2021/08/04 08:01:59;;;;;;;3.20;2.90;;;26.40;56.90;;;;;;5007783;28;20044;-63
2021/08/04 08:04:25;;;;;;;3.22;2.70;;;26.40;56.90;;;;;;5011011;28;20030;-63
2021/08/04 08:06:50;;;;;;;5.32;2.63;;;26.40;56.60;;;;;;5007963;28;20840;-63
2021/08/04 08:09:21;;;;;;;2.55;2.35;;;26.50;56.40;;;;;;5016450;28;20087;-63
2021/08/04 08:11:50;;;;;;;2.60;2.40;;;26.50;56.00;;;;;;5011787;28;20060;-62
2021/08/04 08:14:16;;;;;;;2.58;2.38;;;26.40;56.20;;;;;;5013153;28;20075;-62
2021/08/04 08:16:42;;;;;;;3.50;2.40;;;26.40;56.50;;;;;;5018038;28;20025;-62
2021/08/04 08:19:08;;;;;;;2.92;2.40;;;26.50;56.50;;;;;;5008890;28;20052;-61
2021/08/04 08:21:33;;;;;;;2.67;2.47;;;26.40;56.50;;;;;;5009764;28;23828;-61
2021/08/04 08:23:59;;;;;;;2.90;2.65;;;26.50;56.10;;;;;;5008989;28;20046;-60
2021/08/04 08:26:25;;;;;;;2.60;2.40;;;26.40;56.00;;;;;;5002309;28;20141;-61
2021/08/04 08:28:51;;;;;;;2.60;2.40;;;26.40;55.40;;;;;;4991665;28;20478;-61
2021/08/04 08:31:17;;;;;;;2.00;1.90;;;26.40;54.90;;;;;;5004908;28;20037;-61
2021/08/04 08:33:42;;;;;;;2.78;2.22;;;26.40;54.50;;;;;;5007610;28;20401;-63
2021/08/04 08:36:08;;;;;;;2.35;2.15;;;26.30;54.10;;;;;;5011530;28;20038;-62
2021/08/04 08:38:34;;;;;;;2.40;2.20;;;26.30;53.90;;;;;;5006849;28;20061;-62
2021/08/04 08:41:00;;;;;;;2.30;2.10;;;26.30;54.30;;;;;;5013393;28;20043;-62
2021/08/04 08:43:26;;;;;;;2.45;2.25;;;26.30;54.40;;;;;;5007229;28;20040;-62
2021/08/04 08:45:53;;;;;;;2.47;2.28;;;26.30;54.10;;;;;;5005225;28;20413;-62
2021/08/04 08:48:19;;;;;;;2.45;2.25;;;26.30;54.40;;;;;;5007811;28;20493;-62
2021/08/04 08:50:48;;;;;;;2.28;2.08;;;26.20;54.70;;;;;;5007516;28;20033;-62
2021/08/04 08:53:15;;;;;;;2.38;2.17;;;26.30;54.70;;;;;;5018004;28;20526;-61
2021/08/04 08:55:41;;;;;;;2.85;2.42;;;26.30;54.30;;;;;;5010992;28;20099;-61
2021/08/04 08:58:07;;;;;;;2.55;2.35;;;26.30;53.90;;;;;;4999149;28;20045;-61
2021/08/04 09:00:33;;;;;;;2.13;2.03;;;26.30;53.30;;;;;;5008919;28;20072;-62
2021/08/04 09:02:59;;;;;;;2.40;2.20;;;26.30;53.60;;;;;;5012270;28;20136;-62
2021/08/04 09:05:25;;;;;;;3.10;2.25;;;26.30;53.60;;;;;;5008247;28;20062;-62
2021/08/04 09:07:51;;;;;;;2.60;2.40;;;26.20;53.40;;;;;;5009827;28;20159;-63
2021/08/04 09:10:34;;;;;;;2.45;2.25;;;26.20;52.80;;;;;;5006106;28;20176;-61
2021/08/04 09:13:05;;;;;;;2.28;2.13;;;26.20;53.20;;;;;;5009602;28;20052;-62
2021/08/04 09:15:42;;;;;;;3.00;2.70;;;26.20;53.50;;;;;;5008056;28;20397;-61
2021/08/04 09:18:11;;;;;;;2.25;2.05;;;26.30;53.30;;;;;;5013759;28;20037;-61
2021/08/04 09:20:51;;;;;;;2.38;2.17;;;26.30;53.90;;;;;;5012827;28;20065;-61
2021/08/04 09:23:19;;;;;;;2.95;2.10;;;26.30;53.60;;;;;;5009929;28;20499;-61
2021/08/04 09:26:04;;;;;;;2.25;2.10;;;26.30;53.80;;;;;;5010703;28;20044;-60
2021/08/04 09:28:49;;;;;;;2.45;2.25;;;26.30;53.30;;;;;;5012192;28;20030;-64
2021/08/04 09:31:15;;;;;;;4.05;2.20;;;26.30;53.60;;;;;;5016743;28;20037;-61
2021/08/04 09:33:40;;;;;;;2.40;2.20;;;26.30;53.70;;;;;;5016026;28;20051;-62
2021/08/04 09:36:06;;;;;;;3.03;2.20;;;26.30;53.70;;;;;;5015406;28;20037;-63
2021/08/04 09:38:32;;;;;;;2.35;2.17;;;26.30;53.80;;;;;;5021058;28;20083;-62
2021/08/04 09:41:18;;;;;;;2.25;2.15;;;26.30;53.80;;;;;;5014306;28;20036;-62
2021/08/04 09:43:51;;;;;;;2.65;2.45;;;26.30;53.60;;;;;;5013244;28;20037;-61
2021/08/04 09:46:26;;;;;;;3.13;2.15;;;26.30;53.50;;;;;;5013638;28;20033;-61
2021/08/04 09:48:52;;;;;;;2.65;2.45;;;26.20;53.50;;;;;;5009175;28;20076;-61
2021/08/04 09:51:19;;;;;;;2.45;2.22;;;26.20;53.50;;;;;;5008823;28;20468;-61
2021/08/04 09:53:54;;;;;;;2.30;2.10;;;26.30;53.30;;;;;;5014847;28;20370;-61
2021/08/04 09:56:20;;;;;;;2.42;2.30;;;26.30;53.60;;;;;;5012816;28;20049;-61
2021/08/04 09:58:51;;;;;;;2.50;2.30;;;26.30;53.70;;;;;;5008277;28;20098;-61
2021/08/04 10:01:19;;;;;;;;;;;26.30;53.90;;;;;;5009268;28;20049;-61
2021/08/04 10:04:00;;;;;;;2.70;2.05;;;26.30;53.70;;;;;;5012848;28;19909;-61
2021/08/04 10:06:27;;;;;;;2.60;2.40;;;26.30;53.40;;;;;;5011836;28;20032;-61
2021/08/04 10:08:52;;;;;;;2.58;2.38;;;26.30;53.70;;;;;;5021754;28;20087;-61
2021/08/04 10:11:19;;;;;;;2.50;2.30;;;26.30;53.30;;;;;;5018704;28;20033;-61
2021/08/04 10:13:45;;;;;;;3.75;2.13;;;26.40;53.00;;;;;;5014258;28;20036;-61
2021/08/04 10:16:11;;;;;;;2.40;2.20;;;26.40;52.60;;;;;;5014103;28;20029;-62
2021/08/04 10:18:39;;;;;;;2.45;2.25;;;26.40;52.30;;;;;;5014912;28;20025;-61
2021/08/04 10:21:11;;;;;;;2.58;2.38;;;26.40;52.20;;;;;;5010157;28;20042;-61
2021/08/04 10:23:38;;;;;;;3.55;2.63;;;26.50;52.30;;;;;;5020841;28;20137;-61
2021/08/04 10:26:09;;;;;;;2.80;2.50;;;26.50;52.30;;;;;;5017164;28;20496;-62
2021/08/04 10:28:36;;;;;;;2.45;2.25;;;26.50;52.30;;;;;;5018998;28;20362;-62
2021/08/04 10:31:03;;;;;;;3.30;2.38;;;26.60;52.40;;;;;;5017395;28;20029;-62
2021/08/04 10:33:29;;;;;;;2.30;2.10;;;26.60;52.40;;;;;;5021972;28;20033;-62
2021/08/04 10:36:03;;;;;;;3.83;2.20;;;26.60;51.20;;;;;;5010497;28;20765;-62
2021/08/04 10:38:29;;;;;;;2.55;2.35;;;26.70;51.70;;;;;;5016080;28;20038;-61
2021/08/04 10:41:11;;;;;;;2.70;2.50;;;26.70;51.30;;;;;;5012247;28;20091;-61
2021/08/04 10:43:51;;;;;;;2.50;2.30;;;26.70;51.00;;;;;;5019288;28;20485;-61
2021/08/04 10:46:33;;;;;;;2.65;2.35;;;26.70;51.20;;;;;;5018989;28;20037;-61
2021/08/04 10:49:05;;;;;;;2.60;2.40;;;26.80;51.00;;;;;;5018326;28;20581;-61
2021/08/04 10:51:33;;;;;;;3.05;2.33;;;26.80;50.50;;;;;;5018280;28;20037;-61
2021/08/04 10:54:01;;;;;;;2.65;2.28;;;26.80;50.00;;;;;;5020347;28;20409;-61
2021/08/04 10:56:32;;;;;;;2.33;2.13;;;26.80;49.80;;;;;;5017892;28;20041;-61
2021/08/04 10:59:11;;;;;;;2.75;2.47;;;26.80;50.20;;;;;;5019070;28;20373;-61
2021/08/04 11:01:48;;;;;;;2.53;2.33;;;26.80;50.50;;;;;;5023141;28;20048;-61
2021/08/04 11:04:15;;;;;;;2.20;2.00;;;26.80;50.20;;;;;;5019517;28;20490;-61
2021/08/04 11:07:09;;;;;;;2.75;2.35;;;26.80;50.30;;;;;;5011652;28;20390;-61
2021/08/04 11:09:43;;;;;;;3.45;2.92;;;26.80;51.00;;;;;;5019000;28;20053;-64
2021/08/04 11:12:16;;;;;;;2.70;2.50;;;26.90;50.90;;;;;;5023472;28;20128;-62
2021/08/04 11:14:46;;;;;;;2.50;2.30;;;26.90;50.20;;;;;;5023055;28;20420;-62
2021/08/04 11:17:22;;;;;;;2.70;2.50;;;26.90;50.20;;;;;;5025052;28;20474;-62
2021/08/04 11:20:02;;;;;;;2.70;2.50;;;27.00;50.00;;;;;;5018937;28;21660;-62
2021/08/04 11:22:35;;;;;;;2.50;2.30;;;27.00;50.90;;;;;;5011922;28;20113;-62
2021/08/04 11:25:22;;;;;;;2.50;2.30;;;27.00;50.50;;;;;;5019603;28;20060;-61
2021/08/04 11:27:48;;;;;;;2.78;2.33;;;27.00;50.60;;;;;;5012809;28;20037;-62
2021/08/04 11:30:32;;;;;;;2.33;2.20;;;27.00;50.30;;;;;;5015156;28;20041;-63
2021/08/04 11:33:24;;;;;;;2.28;2.08;;;27.10;50.60;;;;;;5016474;28;20628;-62
2021/08/04 11:36:10;;;;;;;4.22;2.30;;;27.10;50.70;;;;;;5018756;28;20694;-62
2021/08/04 11:38:42;;;;;;;2.40;2.20;;;27.20;50.50;;;;;;5019084;28;20073;-63
2021/08/04 11:41:18;;;;;;;2.75;2.40;;;27.20;50.20;;;;;;5011940;28;20040;-60
2021/08/04 11:43:44;;;;;;;2.65;2.45;;;27.30;50.50;;;;;;5014270;28;20021;-61
2021/08/04 11:46:31;;;;;;;2.53;2.33;;;27.30;50.40;;;;;;5012973;28;20105;-59
2021/08/04 11:48:57;;;;;;;4.30;2.28;;;27.30;50.30;;;;;;5013847;28;20029;-60
2021/08/04 11:51:52;;;;;;;2.50;2.30;;;27.30;50.60;;;;;;5015263;28;20030;-62
2021/08/04 11:54:53;;;;;;;2.50;2.30;;;27.30;50.30;;;;;;5006023;28;20048;-62
2021/08/04 11:57:32;;;;;;;2.80;2.50;;;27.40;50.90;;;;;;5008659;28;20141;-62
2021/08/04 12:00:00;;;;;;;2.58;2.38;;;27.40;50.40;;;;;;5011382;28;20037;-62
2021/08/04 12:02:30;;;;;;;2.55;2.35;;;27.50;50.60;;;;;;5011089;28;20060;-62
2021/08/04 12:04:57;;;;;;;2.85;2.45;;;27.50;50.90;;;;;;5008675;28;20130;-62
2021/08/04 12:07:27;;;;;;;2.50;2.30;;;27.50;50.70;;;;;;5007365;28;20038;-62
2021/08/04 12:09:57;;;;;;;;;;;27.60;50.50;;;;;;5014586;28;20032;-62
2021/08/04 12:12:31;;;;;;;2.95;2.30;;;27.50;50.80;;;;;;5016692;28;19936;-62
2021/08/04 12:14:56;;;;;;;2.35;2.15;;;27.60;51.00;;;;;;5011420;28;20029;-62
2021/08/04 12:17:33;;;;;;;2.60;2.40;;;27.60;51.30;;;;;;5012886;28;20758;-61
2021/08/04 12:20:30;;;;;;;2.65;2.45;;;27.60;51.20;;;;;;5017160;28;20179;-61
2021/08/04 12:23:09;;;;;;;2.55;2.35;;;27.60;51.40;;;;;;5017509;28;20141;-61
2021/08/04 12:25:38;;;;;;;2.53;2.33;;;27.60;51.30;;;;;;5015926;28;20104;-62
2021/08/04 12:28:05;;;;;;;2.88;2.45;;;27.60;51.20;;;;;;5021520;28;20029;-62
2021/08/04 12:30:33;;;;;;;2.90;2.70;;;27.60;51.00;;;;;;5014104;28;20406;-62
2021/08/04 12:33:04;;;;;;;2.83;2.63;;;27.60;50.80;;;;;;5016442;28;20164;-63
2021/08/04 12:35:42;;;;;;;3.65;2.70;;;27.60;51.10;;;;;;5019389;28;20037;-62
2021/08/04 12:38:11;;;;;;;2.58;2.38;;;27.50;51.40;;;;;;5018763;28;20038;-61
2021/08/04 12:40:38;;;;;;;2.83;2.60;;;27.50;51.60;;;;;;5014252;28;20491;-61
2021/08/04 12:43:04;;;;;;;2.80;2.53;;;27.50;51.40;;;;;;5012912;28;20033;-63
2021/08/04 12:45:30;;;;;;;5.68;2.60;;;27.50;51.40;;;;;;5012345;28;20021;-62
2021/08/04 12:47:59;;;;;;;3.75;2.60;;;27.50;51.80;;;;;;5013355;28;20036;-62
2021/08/04 12:50:31;;;;;;;2.72;2.53;;;27.50;52.00;;;;;;5009631;28;20080;-62
2021/08/04 12:52:58;;;;;;;3.15;2.80;;;27.50;52.10;;;;;;5013592;28;20544;-61
2021/08/04 12:55:25;;;;;;;3.08;2.60;;;27.50;52.30;;;;;;5015275;28;20043;-61